Hauptseite
METAR-TAF:

METAR-TAF

Flughäfen :

Florenz, Italien

Flughafen Florenz

Breite: 43-48N, Länge: 011-12E, Höhe: 40 m

Beobachtung

Neuester Wetterbericht von vor 21 Minuten, um 19:20 UTC
Wind 2 kt aus unterschiedlichen Richtungen
Temperatur 8°C
Luftfeuchtigkeit 76%
Luftdruck 1014 hPa
Sichtweite 10 km oder mehr
Durchbrochene Bewölkung in der Höhe von 3500 ft

METAR: LIRQ 221920Z VRB02KT 9999 BKN035 08/04 Q1014

Zeit: 20:41 (19:41 UTC)

Prognose

Neuester Wetterbericht von vor 2 Stunden und 41 Minuten, um 17:00 UTC
Gültige Prognose vom 22 um 18 UTC bis 23 um 18 UTC
Wind 5 kt aus unterschiedlichen Richtungen
Sichtweite 10 km oder mehr
Leicht bewölkt in der Höhe von 3000 ft
Übergehend zu
vom 23 um 10 UTC bis 23 um 12 UTC
Wind 10 kt aus Nordost

TAF: LIRQ 221700Z 2218/2318 VRB05KT 9999 FEW030 BECMG 2310/2312 04010KT

Wetterbeobachtungen und Prognosen von mehr als 4000 Flughäfen (METAR und TAF Bericht).

Die verfügbaren Stationen werden durch gelbe und rote Markierungen auf der Karte dargestellt.

Führen Sie die Maus auf sie, um den Namen der Station zu sehen.

Darauf klicken, um die Beobachtung von Wetterbeobachtungen und Prognosen zu sehen.

Um die Karte zu ändern : klicken Sie auf den grünen Tasten mit einem schwarzen Kreuz Zum Vergrößern, auf den grünen Button mit einem Gedankenstrich zu verkleinern, oder auf die grünen Pfeile für benachbarte Karten.


METAR-TAF: